KBVN

Details ICAO KBVN
Name ALBION MUNI
Region United States
Timezone America/Chicago (UTC-6.0)
Plans Departing 0
Arriving 0
Stats Elevation 1,806 ft / 550 m (AMSL)
Location 41.728578° -98.055740°
Runways 1
Magnetic Variation 4.055° E
Sunrise 2017-12-15 13:53:57 UTC / 2017-12-15 07:53:57 Local
Sunset 2017-12-15 23:03:50 UTC / 2017-12-15 17:03:50 Local
Advertisement - Login to hide

Runways

ID Width Length Bearing (true) Bearing (mag) Surface Threshold Offset Overrun Length
15 59 ft / 18 m 3,704 ft / 1,129 m 153.80° 149.75° Concrete 0 ft / 0 m 0 ft / 0 m
33 59 ft / 18 m 3,704 ft / 1,129 m 333.80° 329.75° Concrete 0 ft / 0 m 0 ft / 0 m

Map

Weather


0- 5 10 15 20 25 30 35+ Temperature / ° C

Clouds and Precipitation
Forecast for 2017-12-16 06:00 UTC. Updated 2 hours ago

Ground ~20,000 ft ~40,000 ft Winds

METAR

KBVN 160515Z AUTO 00000KT 10SM CLR 04/M05 A2970 RMK AO2 T00441046

TAF

Not found

Frequencies

Recorded 118.57 MHz AWOS 3
Unicom 122.90 MHz CTAF
Warning: Do not use this data for real-world aviation or navigation. No guarantee of current accuracy is given.